Terminal Aerodrome Forecast
Issued by NWS Cleveland, OH

Home | Current Version | Previous Version | Text Only | Print | Product List | Glossary Off
Versions: 1 2 3 4 5 6 7 8 9 10 11 12 13 14 15 16 17 18 19 20 21 22 23 24 25 26 27 28

000
FTUS41 KCLE 202242 AAC
TAFCLE
TAF AMD
KCLE 202242Z 2023/2124 32014G22KT P6SM VCTS BKN050CB
      TEMPO 2023/2102 VRB20G35KT 2SM TSRA OVC015CB
     FM210400 27012KT P6SM BKN025
     FM211600 27012G22KT P6SM BKN025=

USA.gov is the U.S. government's official web portal to all federal, state and local government web resources and services.